Time;durP1;ratioP1;P1;durP2;ratioP2;P2;SDS_P1;SDS_P2;PMS_P1;PMS_P2;Temp;Humidity;BMP_temperature;BMP_pressure;BME280_temperature;BME280_humidity;BME280_pressure;Samples;Min_cycle;Max_cycle;Signal;HPM_P1;HPM_P2
2022/06/25 00:02:06;;;;;;;5.63;5.18;;;;;;;21.02;70.85;94871.34;5004152;28;20749;-65
2022/06/25 00:07:19;;;;;;;5.40;5.03;;;;;;;20.03;74.59;94868.50;5005256;28;20592;-65
2022/06/25 00:09:45;;;;;;;5.88;5.45;;;;;;;19.58;77.28;94867.50;5004378;28;20234;-65
2022/06/25 00:14:56;;;;;;;6.65;6.15;;;;;;;18.86;80.98;94854.53;5004795;28;20652;-64
2022/06/25 00:17:23;;;;;;;6.78;6.22;;;;;;;18.67;82.82;94854.16;5004593;28;20218;-65
2022/06/25 00:19:51;;;;;;;6.70;6.00;;;;;;;18.77;82.70;94847.44;5005679;28;20714;-65
2022/06/25 00:22:18;;;;;;;7.53;5.72;;;;;;;19.48;79.93;94848.47;5004761;28;20705;-65
2022/06/25 00:24:45;;;;;;;7.03;5.82;;;;;;;19.86;77.80;94861.16;5004785;28;20203;-66
2022/06/25 00:27:11;;;;;;;5.63;5.28;;;;;;;20.20;76.22;94865.50;5005367;28;20211;-65
2022/06/25 00:29:38;;;;;;;7.00;6.30;;;;;;;20.46;74.79;94860.19;5005053;28;20997;-64
2022/06/25 00:32:09;;;;;;;5.68;5.35;;;;;;;20.46;74.53;94865.34;5005205;28;20199;-64
2022/06/25 00:34:36;;;;;;;6.28;5.65;;;;;;;20.55;74.23;94874.94;5004769;28;20210;-65
2022/06/25 00:37:04;;;;;;;7.43;6.10;;;;;;;20.54;74.41;94868.97;5004978;28;20639;-65
2022/06/25 00:39:31;;;;;;;7.78;5.55;;;;;;;20.64;73.97;94859.59;5003657;28;20706;-65
2022/06/25 00:41:58;;;;;;;6.40;5.28;;;;;;;20.43;74.53;94853.47;5005525;28;20211;-65
2022/06/25 00:44:25;;;;;;;6.28;5.72;;;;;;;20.10;76.18;94851.63;5004682;28;20233;-65
2022/06/25 00:46:52;;;;;;;6.20;5.72;;;;;;;20.21;76.13;94843.91;5004814;28;20390;-65
2022/06/25 00:49:19;;;;;;;5.32;5.03;;;;;;;20.13;76.28;94848.81;5005150;28;20199;-65
2022/06/25 00:51:48;;;;;;;5.60;5.18;;;;;;;20.31;75.47;94847.44;5005526;28;20211;-65
2022/06/25 00:54:18;;;;;;;5.18;4.82;;;;;;;20.37;74.99;94852.19;5003254;28;20199;-65
2022/06/25 00:56:48;;;;;;;6.75;5.90;;;;;;;20.56;74.37;94861.09;5005070;28;20215;-65
2022/06/25 00:59:19;;;;;;;6.18;5.68;;;;;;;20.72;73.74;94861.59;5005366;28;20325;-65
2022/06/25 01:01:46;;;;;;;6.15;5.38;;;;;;;20.44;74.67;94852.53;5003458;28;20211;-64
2022/06/25 01:04:13;;;;;;;5.80;5.40;;;;;;;20.31;75.62;94847.44;5005162;28;20237;-67
2022/06/25 01:06:39;;;;;;;7.40;5.60;;;;;;;20.30;75.49;94850.94;5004672;28;20218;-65
2022/06/25 01:09:06;;;;;;;6.57;6.03;;;;;;;20.09;76.50;94859.47;5004389;28;20244;-65
2022/06/25 01:11:34;;;;;;;7.32;5.35;;;;;;;20.09;76.12;94862.06;5004444;28;20777;-65
2022/06/25 01:14:07;;;;;;;9.88;6.13;;;;;;;19.79;76.68;94862.56;5004611;28;20261;-64
2022/06/25 01:16:34;;;;;;;5.22;4.93;;;;;;;19.93;76.64;94857.22;5005473;28;20268;-66
2022/06/25 01:19:06;;;;;;;9.25;5.47;;;;;;;20.09;75.17;94852.56;5004931;28;20269;-65
2022/06/25 01:21:33;;;;;;;5.07;4.55;;;;;;;20.18;74.88;94848.47;5006104;28;20252;-65
2022/06/25 01:24:02;;;;;;;5.95;5.45;;;;;;;20.26;74.32;94852.16;5007092;28;20249;-65
2022/06/25 01:26:29;;;;;;;14.48;6.75;;;;;;;20.23;74.09;94857.53;5007536;28;20932;-64
2022/06/25 01:28:56;;;;;;;6.15;4.72;;;;;;;20.23;74.33;94854.13;5008742;28;20211;-65
2022/06/25 01:31:23;;;;;;;5.70;5.30;;;;;;;20.28;74.17;94858.00;5008164;28;20792;-65
2022/06/25 01:33:50;;;;;;;5.35;4.88;;;;;;;20.27;73.40;94851.22;5007126;28;21823;-65
2022/06/25 01:36:16;;;;;;;6.60;5.07;;;;;;;20.34;73.35;94854.13;5007654;28;20595;-64
2022/06/25 01:38:45;;;;;;;5.72;5.07;;;;;;;20.44;72.63;94854.31;5009044;28;20211;-64
2022/06/25 01:41:13;;;;;;;6.53;5.13;;;;;;;20.43;72.69;94855.25;5008528;28;20218;-65
2022/06/25 01:43:40;;;;;;;7.43;5.10;;;;;;;20.49;72.48;94857.38;5007903;28;20643;-64
2022/06/25 01:46:08;;;;;;;6.97;5.03;;;;;;;20.17;73.58;94859.75;5007817;28;20214;-66
2022/06/25 01:48:35;;;;;;;6.22;5.15;;;;;;;19.82;74.51;94859.75;5008264;28;20210;-65
2022/06/25 01:51:02;;;;;;;6.38;5.18;;;;;;;19.68;75.10;94853.84;5008775;28;20284;-64
2022/06/25 01:53:29;;;;;;;9.20;5.03;;;;;;;19.75;75.42;94853.41;5006892;28;20712;-64
2022/06/25 01:55:56;;;;;;;5.28;4.90;;;;;;;19.74;75.36;94862.06;5008476;28;20213;-65
2022/06/25 01:58:25;;;;;;;6.13;5.35;;;;;;;19.85;75.10;94864.69;5007637;28;20191;-64
2022/06/25 02:00:51;;;;;;;4.97;4.50;;;;;;;19.88;74.79;94864.47;5007532;28;20203;-65
2022/06/25 02:03:18;;;;;;;6.82;4.13;;;;;;;19.99;74.31;94873.06;5008024;28;20235;-65
2022/06/25 02:05:57;;;;;;;5.45;4.97;;;;;;;19.60;75.95;94881.94;5008367;28;20238;-66
2022/06/25 02:08:26;;;;;;;5.45;4.78;;;;;;;19.87;75.44;94873.13;5007550;28;20277;-65
2022/06/25 02:10:54;;;;;;;6.78;4.78;;;;;;;20.18;73.84;94879.44;5006860;28;20231;-65
2022/06/25 02:13:21;;;;;;;5.32;4.40;;;;;;;20.07;74.04;94876.81;5007753;28;20639;-66
2022/06/25 02:15:50;;;;;;;4.72;4.43;;;;;;;19.87;74.73;94873.13;5008185;28;20210;-65
2022/06/25 02:18:17;;;;;;;5.13;4.72;;;;;;;19.95;74.98;94870.81;5007239;28;20237;-65
2022/06/25 02:20:44;;;;;;;4.78;4.38;;;;;;;19.89;75.00;94866.94;5008178;28;20215;-65
2022/06/25 02:23:12;;;;;;;8.10;4.75;;;;;;;19.84;75.05;94874.16;5006486;28;20215;-64
2022/06/25 02:25:39;;;;;;;6.60;4.85;;;;;;;19.99;74.55;94874.81;5007515;28;22230;-65
2022/06/25 02:28:06;;;;;;;5.20;4.80;;;;;;;20.02;74.69;94872.03;5007949;28;22285;-64
2022/06/25 02:30:33;;;;;;;4.65;4.25;;;;;;;19.96;74.59;94867.31;5006785;28;20199;-65
2022/06/25 02:33:02;;;;;;;5.22;4.82;;;;;;;19.76;75.22;94886.81;5007503;28;20210;-65
2022/06/25 02:35:29;;;;;;;4.80;4.50;;;;;;;19.79;75.62;94893.50;5006830;28;20772;-64
2022/06/25 02:37:55;;;;;;;7.53;5.13;;;;;;;19.83;75.11;94902.66;5008321;28;20210;-65
2022/06/25 02:40:22;;;;;;;7.40;5.00;;;;;;;19.95;75.10;94897.44;5006211;28;20750;-65
2022/06/25 02:42:49;;;;;;;6.10;4.93;;;;;;;20.25;73.70;94894.38;5006901;28;20829;-65
2022/06/25 02:45:16;;;;;;;5.30;4.88;;;;;;;20.34;73.22;94883.34;5006262;28;20233;-65
2022/06/25 02:47:43;;;;;;;5.40;4.95;;;;;;;20.15;73.61;94890.00;5006550;28;20203;-64
2022/06/25 02:50:12;;;;;;;4.75;4.55;;;;;;;19.76;75.29;94888.56;5007534;28;20207;-65
2022/06/25 02:52:39;;;;;;;4.80;4.50;;;;;;;19.89;75.23;94886.75;5004559;28;20203;-64
2022/06/25 02:55:06;;;;;;;9.18;5.05;;;;;;;19.94;75.20;94884.66;5007035;28;20215;-65
2022/06/25 03:00:18;;;;;;;5.90;5.38;;;;;;;19.83;74.93;94877.69;5007242;28;20315;-64
2022/06/25 03:02:44;;;;;;;5.28;4.45;;;;;;;19.60;76.87;94878.53;5007280;28;21093;-65
2022/06/25 03:05:13;;;;;;;5.32;5.03;;;;;;;19.58;77.61;94873.47;5005896;28;20235;-65
2022/06/25 03:07:39;;;;;;;5.70;5.18;;;;;;;19.54;78.01;94882.38;5007603;28;20308;-66
2022/06/25 03:10:07;;;;;;;5.65;5.35;;;;;;;19.11;80.12;94884.53;5007188;28;20242;-65
2022/06/25 03:12:35;;;;;;;5.32;5.03;;;;;;;19.01;80.28;94892.09;5006774;28;20199;-65
2022/06/25 03:15:01;;;;;;;10.20;5.95;;;;;;;19.26;80.21;94901.53;5005912;28;20203;-65
2022/06/25 03:17:28;;;;;;;6.40;5.63;;;;;;;19.38;80.22;94899.81;5006787;28;20206;-65
2022/06/25 03:19:55;;;;;;;6.00;5.40;;;;;;;19.54;80.09;94897.03;5007008;28;20429;-66
2022/06/25 03:22:23;;;;;;;6.00;5.38;;;;;;;19.59;79.56;94885.44;5005988;28;20256;-65
2022/06/25 03:24:50;;;;;;;9.93;6.50;;;;;;;19.38;79.63;94886.94;5007704;28;20211;-65
2022/06/25 03:27:17;;;;;;;6.85;5.82;;;;;;;19.09;80.46;94885.56;5007609;28;20745;-66
2022/06/25 03:29:44;;;;;;;6.10;5.63;;;;;;;19.07;80.74;94890.00;5008666;28;20207;-64
2022/06/25 03:32:10;;;;;;;6.85;5.75;;;;;;;18.99;81.44;94891.38;5007859;28;20265;-64
2022/06/25 03:34:37;;;;;;;11.20;5.72;;;;;;;19.27;81.10;94879.16;5008668;28;20245;-65
2022/06/25 03:37:04;;;;;;;6.80;6.20;;;;;;;19.44;81.02;94881.34;5008448;28;20708;-64
2022/06/25 03:39:33;;;;;;;6.28;5.38;;;;;;;19.42;80.59;94882.38;5009475;28;20207;-64
2022/06/25 03:41:59;;;;;;;9.60;6.63;;;;;;;19.56;80.18;94890.81;5008625;28;20659;-65
2022/06/25 03:44:26;;;;;;;7.75;5.32;;;;;;;19.81;78.71;94884.72;5007671;28;20227;-67
2022/06/25 03:46:53;;;;;;;6.22;5.63;;;;;;;19.90;79.10;94878.06;5007830;28;20280;-66
2022/06/25 03:49:19;;;;;;;6.60;5.65;;;;;;;20.27;77.24;94871.84;5008871;28;20381;-66
2022/06/25 03:51:46;;;;;;;8.63;6.22;;;;;;;20.23;76.35;94878.19;5009064;28;20211;-65
2022/06/25 03:54:13;;;;;;;6.10;5.70;;;;;;;20.21;76.20;94867.16;5006624;28;20213;-65
2022/06/25 03:56:41;;;;;;;6.20;5.80;;;;;;;20.27;75.88;94858.94;5007360;28;20300;-65
2022/06/25 03:59:08;;;;;;;10.15;5.25;;;;;;;20.25;75.74;94858.25;5008052;28;20874;-65
2022/06/25 04:01:35;;;;;;;7.18;5.78;;;;;;;20.13;75.54;94864.31;5008799;28;20240;-64
2022/06/25 04:04:02;;;;;;;8.93;5.78;;;;;;;20.05;75.84;94867.44;5007613;28;20231;-65
2022/06/25 04:06:28;;;;;;;6.50;6.10;;;;;;;19.97;77.58;94874.13;5008292;28;20206;-67
2022/06/25 04:08:55;;;;;;;7.30;5.90;;;;;;;19.61;78.52;94888.72;5008288;28;20214;-65
2022/06/25 04:11:22;;;;;;;6.45;5.93;;;;;;;19.71;78.60;94888.91;5008905;28;20241;-64
2022/06/25 04:13:50;;;;;;;10.05;5.55;;;;;;;20.07;78.63;94894.88;5007628;28;20210;-66
2022/06/25 04:16:17;;;;;;;6.53;5.93;;;;;;;20.30;77.83;94892.25;5007510;28;20203;-65
2022/06/25 04:18:44;;;;;;;6.65;6.05;;;;;;;20.21;77.49;94887.78;5007430;28;20211;-65
2022/06/25 04:21:11;;;;;;;7.25;6.60;;;;;;;19.97;78.57;94894.75;5008717;28;20242;-65
2022/06/25 04:23:38;;;;;;;7.63;6.82;;;;;;;20.14;78.53;94891.75;5007675;28;20640;-64
2022/06/25 04:26:04;;;;;;;6.90;5.32;;;;;;;20.06;78.97;94896.63;5005812;28;20762;-65
2022/06/25 04:31:17;;;;;;;6.97;6.38;;;;;;;19.91;79.73;94888.28;5007813;28;20264;-65
2022/06/25 04:33:44;;;;;;;13.27;6.30;;;;;;;20.10;79.07;94890.31;5008569;28;20207;-65
2022/06/25 04:36:10;;;;;;;11.85;5.97;;;;;;;20.36;77.40;94891.78;5006973;28;20702;-65
2022/06/25 04:38:37;;;;;;;9.45;5.57;;;;;;;20.48;76.19;94904.75;5007661;28;20211;-64
2022/06/25 04:41:04;;;;;;;7.85;5.82;;;;;;;20.48;76.07;94904.75;5008014;28;20206;-65
2022/06/25 04:43:31;;;;;;;9.18;5.60;;;;;;;20.60;75.95;94909.81;5007519;28;20218;-65
2022/06/25 04:45:57;;;;;;;8.38;6.05;;;;;;;20.61;75.91;94910.63;5006199;28;20227;-65
2022/06/25 04:48:25;;;;;;;7.65;6.57;;;;;;;20.64;75.76;94911.22;5008172;28;20590;-65
2022/06/25 04:50:52;;;;;;;13.60;6.13;;;;;;;20.85;75.18;94905.38;5007623;28;20218;-65
2022/06/25 04:53:19;;;;;;;7.88;6.35;;;;;;;21.25;73.24;94906.59;5006385;28;20624;-65
2022/06/25 04:55:46;;;;;;;6.78;6.28;;;;;;;21.45;72.21;94906.78;5007826;28;20837;-65
2022/06/25 04:58:12;;;;;;;13.82;6.60;;;;;;;21.63;71.66;94908.72;5011794;28;20207;-65
2022/06/25 05:00:40;;;;;;;12.80;6.75;;;;;;;21.78;71.23;94921.41;5012188;28;20579;-67
2022/06/25 05:03:07;;;;;;;9.10;6.03;;;;;;;21.95;71.05;94915.69;5012075;28;20592;-64
2022/06/25 05:05:35;;;;;;;7.97;6.32;;;;;;;22.12;70.79;94917.75;5009942;28;20234;-64
2022/06/25 05:08:02;;;;;;;7.75;6.55;;;;;;;22.06;70.86;94920.81;5012081;28;20211;-65
2022/06/25 05:10:28;;;;;;;7.22;6.50;;;;;;;22.19;70.90;94910.31;5011578;28;20489;-65
2022/06/25 05:13:13;;;;;;;7.35;6.60;;;;;;;22.38;69.93;94918.19;5011462;28;20737;-67
2022/06/25 05:15:40;;;;;;;9.73;6.10;;;;;;;22.73;68.07;94923.06;5010440;28;20210;-65
2022/06/25 05:18:08;;;;;;;10.48;5.70;;;;;;;23.41;66.46;94921.59;5011461;28;20763;-64
2022/06/25 05:20:39;;;;;;;11.32;6.72;;;;;;;23.80;64.44;94913.91;5010859;28;20689;-65
2022/06/25 05:23:06;;;;;;;6.30;5.63;;;;;;;24.62;62.39;94912.53;5011093;28;20209;-65
2022/06/25 05:25:33;;;;;;;14.18;6.78;;;;;;;26.09;57.45;94915.13;5009732;28;20230;-65
2022/06/25 05:27:59;;;;;;;10.18;7.22;;;;;;;27.56;53.36;94912.50;5011746;28;20207;-66
2022/06/25 05:30:26;;;;;;;9.32;6.47;;;;;;;27.88;52.18;94911.00;5011633;28;20284;-65
2022/06/25 05:32:53;;;;;;;10.57;5.68;;;;;;;28.22;50.73;94906.47;5010751;28;21920;-65
2022/06/25 05:35:20;;;;;;;8.30;6.15;;;;;;;28.79;49.96;94906.44;5009753;28;20199;-66
2022/06/25 05:37:49;;;;;;;8.13;5.70;;;;;;;29.65;47.31;94901.31;5011915;28;20215;-65
2022/06/25 05:40:16;;;;;;;13.52;6.25;;;;;;;30.91;44.72;94901.72;5011107;28;20207;-66
2022/06/25 05:42:42;;;;;;;13.70;6.75;;;;;;;28.87;47.30;94901.25;5010576;28;20890;-65
2022/06/25 05:45:10;;;;;;;5.72;5.25;;;;;;;28.10;50.03;94911.19;5010837;28;20231;-65
2022/06/25 05:47:37;;;;;;;6.50;5.90;;;;;;;27.77;51.81;94910.31;5009248;28;20258;-66
2022/06/25 05:50:06;;;;;;;6.32;5.75;;;;;;;28.91;49.04;94905.16;5011717;28;20206;-67
2022/06/25 05:52:33;;;;;;;7.53;6.90;;;;;;;30.33;46.16;94913.66;5010645;28;20291;-66
2022/06/25 05:55:01;;;;;;;12.27;6.80;;;;;;;31.36;43.76;94915.69;5010592;28;20248;-66
2022/06/25 05:57:28;;;;;;;7.95;6.43;;;;;;;31.66;42.83;94912.06;5010274;28;20266;-65
2022/06/25 05:59:55;;;;;;;7.00;6.40;;;;;;;32.51;41.90;94911.31;5011289;28;20626;-65
2022/06/25 06:02:21;;;;;;;10.15;6.65;;;;;;;32.23;40.68;94911.25;5010027;28;20214;-66
2022/06/25 06:04:48;;;;;;;9.73;7.47;;;;;;;32.11;40.84;94910.94;5010126;28;20781;-66
2022/06/25 06:07:15;;;;;;;11.35;6.80;;;;;;;31.12;42.84;94911.53;5009858;28;20615;-65
2022/06/25 06:09:41;;;;;;;11.63;8.05;;;;;;;30.48;43.93;94903.22;5010395;28;20661;-65
2022/06/25 06:12:10;;;;;;;8.65;7.85;;;;;;;30.27;45.58;94898.63;5010075;28;20699;-66
2022/06/25 06:14:37;;;;;;;11.63;7.22;;;;;;;30.08;45.57;94909.59;5010408;28;20253;-65
2022/06/25 06:17:04;;;;;;;8.57;7.90;;;;;;;29.74;46.43;94913.38;5009125;28;20214;-65
2022/06/25 06:19:31;;;;;;;10.25;6.18;;;;;;;29.83;45.64;94910.72;5009980;28;20203;-64
2022/06/25 06:21:57;;;;;;;7.75;6.47;;;;;;;28.91;47.25;94910.41;5009959;28;20272;-66
2022/06/25 06:24:24;;;;;;;6.97;6.47;;;;;;;29.17;47.27;94909.34;5010790;28;20203;-64
2022/06/25 06:26:51;;;;;;;7.20;6.63;;;;;;;29.35;47.28;94907.31;5008207;28;20685;-65
2022/06/25 06:29:19;;;;;;;12.98;8.27;;;;;;;29.25;47.29;94906.69;5008468;28;20300;-65
2022/06/25 06:31:46;;;;;;;9.88;6.00;;;;;;;28.99;46.68;94907.75;5009626;28;20215;-64
2022/06/25 06:34:13;;;;;;;7.13;5.97;;;;;;;28.25;49.53;94903.53;5008777;28;20584;-65
2022/06/25 06:36:39;;;;;;;7.18;6.53;;;;;;;28.14;48.98;94896.00;5008119;28;20293;-65
2022/06/25 06:39:06;;;;;;;7.85;7.20;;;;;;;27.94;50.21;94899.91;5008768;28;20207;-65
2022/06/25 06:41:33;;;;;;;6.85;6.35;;;;;;;27.68;50.12;94906.06;5009892;28;20211;-65
2022/06/25 06:44:00;;;;;;;7.85;6.18;;;;;;;27.61;50.26;94905.06;5010458;28;20225;-65
2022/06/25 06:46:29;;;;;;;7.07;6.35;;;;;;;27.48;49.76;94909.84;5009351;28;20313;-65
2022/06/25 06:48:55;;;;;;;8.60;6.30;;;;;;;28.04;49.12;94905.78;5010139;28;20650;-66
2022/06/25 06:51:22;;;;;;;7.30;6.60;;;;;;;27.64;50.75;94909.97;5009180;28;20207;-65
2022/06/25 06:53:49;;;;;;;6.93;6.15;;;;;;;28.06;49.91;94914.28;5008636;28;22020;-66
2022/06/25 06:56:16;;;;;;;9.60;6.60;;;;;;;28.27;47.89;94911.22;5008996;28;20195;-66
2022/06/25 06:58:42;;;;;;;7.85;6.25;;;;;;;28.22;48.21;94903.88;5009382;28;20264;-66
2022/06/25 07:01:09;;;;;;;7.22;6.60;;;;;;;27.98;48.89;94911.66;5009338;28;20765;-65
2022/06/25 07:03:37;;;;;;;7.72;7.03;;;;;;;28.31;49.14;94913.34;5009091;28;20310;-65
2022/06/25 07:06:04;;;;;;;10.00;7.88;;;;;;;28.65;48.08;94912.38;5007789;28;20235;-67
2022/06/25 07:08:31;;;;;;;10.57;6.88;;;;;;;28.31;49.80;94902.91;5009690;28;20211;-66
2022/06/25 07:10:58;;;;;;;9.38;6.22;;;;;;;27.92;50.13;94901.88;5009899;28;20231;-65
2022/06/25 07:13:25;;;;;;;7.95;7.20;;;;;;;27.73;50.11;94903.75;5009172;28;20203;-65
2022/06/25 07:15:51;;;;;;;7.18;6.13;;;;;;;27.92;50.76;94899.25;5008240;28;20749;-66
2022/06/25 07:18:18;;;;;;;13.60;7.63;;;;;;;28.33;48.94;94898.31;5008596;28;20252;-66
2022/06/25 07:20:46;;;;;;;7.35;6.65;;;;;;;28.40;48.38;94901.09;5009378;28;20294;-66
2022/06/25 07:23:13;;;;;;;7.88;7.03;;;;;;;28.68;47.63;94894.56;5009120;28;20208;-66
2022/06/25 07:25:40;;;;;;;7.38;6.55;;;;;;;28.73;48.66;94894.03;5008772;28;20787;-66
2022/06/25 07:28:06;;;;;;;13.63;6.68;;;;;;;28.43;49.38;94891.16;5008889;28;20211;-66
2022/06/25 07:30:33;;;;;;;6.35;5.45;;;;;;;28.40;49.61;94895.88;5009657;28;20862;-67
2022/06/25 07:33:00;;;;;;;6.55;5.18;;;;;;;28.54;48.99;94897.81;5008602;28;20279;-66
2022/06/25 07:35:27;;;;;;;6.88;5.50;;;;;;;28.95;47.15;94896.00;5008576;28;20210;-65
2022/06/25 07:37:55;;;;;;;5.60;5.18;;;;;;;29.02;47.22;94904.78;5008513;28;20664;-68
2022/06/25 07:40:22;;;;;;;5.28;4.80;;;;;;;28.91;46.64;94905.16;5009104;28;22258;-67
2022/06/25 07:42:49;;;;;;;5.88;4.70;;;;;;;28.57;48.75;94902.72;5008635;28;20982;-66
2022/06/25 07:45:16;;;;;;;10.70;5.20;;;;;;;28.48;49.14;94911.53;5008689;28;20218;-69
2022/06/25 07:47:42;;;;;;;12.15;5.38;;;;;;;28.38;48.79;94903.06;5007997;28;20261;-67
2022/06/25 07:52:56;;;;;;;5.68;5.07;;;;;;;28.55;49.21;94909.09;5007237;28;20217;-66
2022/06/25 07:55:23;;;;;;;5.20;4.88;;;;;;;28.76;48.46;94901.53;5008702;28;20206;-66
2022/06/25 07:57:50;;;;;;;6.38;5.78;;;;;;;29.05;47.60;94901.84;5007313;28;20758;-66
2022/06/25 08:00:17;;;;;;;5.90;5.40;;;;;;;29.22;47.49;94904.41;5009166;28;20264;-66
2022/06/25 08:02:44;;;;;;;7.40;6.60;;;;;;;29.33;47.50;94904.84;5008240;28;20211;-66
2022/06/25 08:05:11;;;;;;;10.55;6.03;;;;;;;29.37;48.08;94907.97;5008819;28;20257;-65
2022/06/25 08:07:37;;;;;;;8.07;5.07;;;;;;;29.31;47.93;94911.25;5007496;28;20594;-66
2022/06/25 08:10:06;;;;;;;9.15;5.63;;;;;;;29.41;48.08;94899.63;5008152;28;20239;-66
2022/06/25 08:12:33;;;;;;;7.35;5.10;;;;;;;29.60;46.93;94903.63;5007808;28;20203;-65
2022/06/25 08:15:00;;;;;;;9.50;5.30;;;;;;;29.67;48.40;94901.97;5009062;28;20212;-65
2022/06/25 08:17:27;;;;;;;9.45;5.25;;;;;;;29.78;48.08;94898.94;5007475;28;20203;-65
2022/06/25 08:19:54;;;;;;;7.72;5.70;;;;;;;29.82;47.28;94898.59;5008611;28;20198;-66
2022/06/25 08:22:21;;;;;;;10.05;4.65;;;;;;;29.55;47.10;94889.41;5008414;28;21577;-67
2022/06/25 08:24:48;;;;;;;10.40;6.78;;;;;;;29.54;47.00;94891.22;5008641;28;20207;-66
2022/06/25 08:27:16;;;;;;;6.05;5.65;;;;;;;29.37;46.93;94894.88;5006784;28;20230;-66
2022/06/25 08:29:43;;;;;;;9.10;5.68;;;;;;;29.07;49.68;94892.03;5007384;28;20755;-66
2022/06/25 08:32:09;;;;;;;7.18;5.72;;;;;;;29.20;47.88;94891.47;5007787;28;22441;-67
2022/06/25 08:34:36;;;;;;;6.45;5.03;;;;;;;29.51;48.44;94888.94;5007959;28;20680;-66
2022/06/25 08:37:04;;;;;;;6.68;5.63;;;;;;;29.73;48.93;94885.53;5007586;28;20664;-66
2022/06/25 08:39:31;;;;;;;8.65;6.68;;;;;;;29.41;46.44;94883.09;5007777;28;20218;-64
2022/06/25 08:42:01;;;;;;;15.00;6.40;;;;;;;29.11;47.35;94898.56;5008673;28;20210;-65
2022/06/25 08:44:30;;;;;;;5.80;5.28;;;;;;;29.38;47.57;94901.75;5007988;28;20298;-68
2022/06/25 08:46:58;;;;;;;7.90;5.43;;;;;;;29.61;47.74;94901.81;5006615;28;20750;-65
2022/06/25 08:49:26;;;;;;;7.38;6.57;;;;;;;29.89;46.50;94899.53;5007748;28;20298;-65
2022/06/25 08:51:54;;;;;;;9.55;6.22;;;;;;;29.98;45.95;94901.09;5008459;28;20580;-65
2022/06/25 08:54:21;;;;;;;11.02;7.35;;;;;;;29.94;45.09;94902.47;5006664;28;20268;-65
2022/06/25 08:56:48;;;;;;;8.18;7.25;;;;;;;29.97;45.66;94899.47;5007749;28;20195;-65
2022/06/25 08:59:16;;;;;;;9.23;6.50;;;;;;;29.95;45.57;94904.06;5008481;28;20203;-64
2022/06/25 09:01:44;;;;;;;6.47;5.82;;;;;;;29.89;45.97;94904.78;5007335;28;20711;-64
2022/06/25 09:04:11;;;;;;;7.18;6.00;;;;;;;29.84;45.54;94900.06;5008040;28;20226;-65
2022/06/25 09:06:38;;;;;;;10.60;6.18;;;;;;;29.90;46.09;94901.19;5006699;28;20747;-64
2022/06/25 09:09:11;;;;;;;8.13;7.32;;;;;;;29.96;46.58;94905.69;5007500;28;20216;-65
2022/06/25 09:11:56;;;;;;;12.45;7.50;;;;;;;29.97;45.67;94904.72;5008014;28;20589;-66
2022/06/25 09:14:24;;;;;;;9.38;7.60;;;;;;;29.73;46.92;94916.16;5007318;28;20223;-65
2022/06/25 09:17:04;;;;;;;7.75;6.95;;;;;;;29.58;46.02;94908.22;5005188;28;20204;-65
2022/06/25 09:19:33;;;;;;;12.80;5.95;;;;;;;29.67;46.85;94901.97;5006210;28;20209;-64
2022/06/25 09:22:00;;;;;;;7.90;6.90;;;;;;;30.01;45.34;94903.41;5008722;28;20207;-64
2022/06/25 09:24:41;;;;;;;8.10;6.35;;;;;;;30.26;45.77;94904.88;5006858;28;21378;-69
2022/06/25 09:27:08;;;;;;;12.98;6.78;;;;;;;30.48;45.40;94907.63;5005824;28;20234;-66
2022/06/25 09:29:40;;;;;;;12.85;6.95;;;;;;;30.45;44.99;94909.63;5007961;28;20313;-64
2022/06/25 09:32:08;;;;;;;8.63;6.45;;;;;;;30.33;45.73;94907.59;5007518;28;20203;-64
2022/06/25 09:34:35;;;;;;;8.35;7.32;;;;;;;30.53;44.27;94910.56;5004237;28;20260;-64
2022/06/25 09:37:19;;;;;;;10.45;7.80;;;;;;;30.61;45.04;94906.09;5006755;28;20267;-64
2022/06/25 09:39:46;;;;;;;9.18;7.43;;;;;;;30.52;45.46;94908.94;5007971;28;20956;-64
2022/06/25 09:42:31;;;;;;;14.95;6.88;;;;;;;30.34;46.31;94907.44;5007005;28;20385;-66
2022/06/25 09:45:07;;;;;;;13.68;8.05;;;;;;;30.15;44.63;94904.47;5010479;28;20210;-65
2022/06/25 09:47:43;;;;;;;13.57;7.53;;;;;;;29.96;46.83;94892.59;5010469;28;20229;-68
2022/06/25 09:50:14;;;;;;;13.18;11.23;;;;;;;30.09;46.77;94896.31;5010074;28;20214;-65
2022/06/25 09:52:52;;;;;;;17.05;11.25;;;;;;;30.15;46.80;94884.31;5010607;28;20324;-67
2022/06/25 09:55:20;;;;;;;17.55;13.55;;;;;;;30.15;47.16;94886.94;5010620;28;20274;-66
2022/06/25 09:57:47;;;;;;;28.88;17.65;;;;;;;30.24;46.06;94887.69;5010583;28;20222;-67
2022/06/25 10:00:16;;;;;;;19.20;14.00;;;;;;;30.43;45.95;94881.97;5010763;28;20206;-67
2022/06/25 10:02:47;;;;;;;16.25;10.20;;;;;;;30.43;45.63;94877.53;5010548;28;20572;-67
2022/06/25 10:05:17;;;;;;;18.42;9.00;;;;;;;30.20;45.91;94884.59;5010787;28;20785;-67
2022/06/25 10:08:05;;;;;;;15.82;10.55;;;;;;;30.31;45.39;94878.13;5009818;28;20230;-66
2022/06/25 10:10:37;;;;;;;11.40;10.20;;;;;;;30.38;46.08;94879.88;5010171;28;20241;-67
2022/06/25 10:13:04;;;;;;;21.15;12.95;;;;;;;30.60;45.72;94877.41;5010464;28;20215;-67
2022/06/25 10:15:31;;;;;;;16.25;10.23;;;;;;;30.64;45.81;94873.44;5010592;28;20202;-67
2022/06/25 10:18:03;;;;;;;19.52;12.60;;;;;;;30.48;45.37;94882.22;5009329;28;20285;-67
2022/06/25 10:20:31;;;;;;;12.32;8.40;;;;;;;30.58;45.79;94882.03;4993052;28;20203;-67
2022/06/25 10:23:00;;;;;;;21.23;8.30;;;;;;;30.83;45.21;94875.56;5010633;28;20684;-67
2022/06/25 10:25:28;;;;;;;10.63;8.70;;;;;;;30.46;45.78;94869.28;5010034;28;20323;-67
2022/06/25 10:28:05;;;;;;;14.52;9.18;;;;;;;30.40;45.27;94867.41;5010728;28;20206;-66
2022/06/25 10:30:39;;;;;;;13.88;9.18;;;;;;;30.54;45.85;94857.94;5009097;28;20218;-67
2022/06/25 10:33:08;;;;;;;11.85;8.25;;;;;;;30.37;46.01;94856.47;5010589;28;20207;-67
2022/06/25 10:35:39;;;;;;;164.15;108.38;;;;;;;30.34;45.90;94854.19;5010151;28;20214;-66
2022/06/25 10:38:08;;;;;;;20.10;13.68;;;;;;;30.29;45.81;94849.47;5010530;28;20230;-66
2022/06/25 10:40:47;;;;;;;18.63;12.57;;;;;;;30.49;45.81;94844.53;5008878;28;20215;-66
2022/06/25 10:43:38;;;;;;;19.42;12.27;;;;;;;30.49;44.71;94843.72;5009033;28;20691;-66
2022/06/25 10:46:24;;;;;;;14.35;7.50;;;;;;;30.36;45.44;94842.53;5009388;28;20234;-67
2022/06/25 10:48:56;;;;;;;15.68;8.98;;;;;;;30.63;45.85;94850.84;5010808;28;20204;-67
2022/06/25 10:51:34;;;;;;;13.18;8.75;;;;;;;30.71;45.68;94848.13;5008803;28;20207;-67
2022/06/25 10:54:02;;;;;;;13.20;8.27;;;;;;;30.78;45.95;94843.78;5007659;28;20337;-66
2022/06/25 10:56:33;;;;;;;12.43;10.57;;;;;;;30.82;45.17;94839.81;5005723;28;20267;-66
2022/06/25 10:59:00;;;;;;;14.18;9.02;;;;;;;30.69;45.34;94839.59;5004845;28;20864;-65
2022/06/25 11:01:32;;;;;;;14.43;8.05;;;;;;;30.64;46.25;94834.09;5004312;28;20294;-65
2022/06/25 11:04:05;;;;;;;20.60;11.98;;;;;;;30.75;46.12;94831.03;5005472;28;20342;-65
2022/06/25 11:06:34;;;;;;;12.25;8.30;;;;;;;30.70;46.26;94825.50;5005866;28;20230;-66
2022/06/25 11:09:16;;;;;;;13.98;9.30;;;;;;;30.83;47.21;94825.69;5006887;28;20203;-66
2022/06/25 11:11:46;;;;;;;21.35;10.38;;;;;;;31.01;45.61;94822.69;5007545;28;20199;-65
2022/06/25 11:14:15;;;;;;;15.25;7.63;;;;;;;31.12;45.33;94822.28;5008534;28;20214;-65
2022/06/25 11:16:43;;;;;;;15.90;8.88;;;;;;;31.18;44.28;94812.88;5005523;28;20245;-65
2022/06/25 11:19:11;;;;;;;14.20;8.18;;;;;;;31.25;43.35;94813.75;5004432;28;20203;-66
2022/06/25 11:21:40;;;;;;;25.77;14.60;;;;;;;31.26;44.34;94799.59;5007712;28;20895;-64
2022/06/25 11:24:12;;;;;;;23.50;12.52;;;;;;;31.03;44.47;94800.53;5009065;28;20817;-65
2022/06/25 11:29:27;;;;;;;17.05;11.80;;;;;;;30.75;45.74;94797.72;5007319;28;20501;-63
2022/06/25 11:31:54;;;;;;;13.75;8.95;;;;;;;30.38;45.45;94795.16;5006139;28;20668;-63
2022/06/25 11:34:24;;;;;;;13.55;9.60;;;;;;;30.13;47.62;94789.34;5007383;28;20203;-63
2022/06/25 11:36:59;;;;;;;13.10;8.75;;;;;;;30.36;45.94;94782.22;5007260;28;20238;-63
2022/06/25 11:39:26;;;;;;;10.05;8.20;;;;;;;30.68;47.62;94785.53;5007911;28;20210;-63
2022/06/25 11:41:53;;;;;;;19.25;13.60;;;;;;;31.04;46.00;94783.78;5006864;28;20207;-63
2022/06/25 11:44:20;;;;;;;21.30;13.13;;;;;;;31.23;44.41;94778.97;5007700;28;20621;-64
2022/06/25 11:46:48;;;;;;;28.70;15.50;;;;;;;31.23;44.06;94790.28;5005481;28;20223;-63
2022/06/25 11:49:16;;;;;;;25.95;16.15;;;;;;;31.27;44.99;94777.59;5006242;28;20205;-63
2022/06/25 11:51:49;;;;;;;16.17;8.95;;;;;;;31.37;44.01;94780.75;5005416;28;20203;-64